VRMM

Malé International Airport

Malé, Maldives
TAF VRMM 141700Z 1418/1524 36006KT 9000 FEW018 TEMPO 1420/1502 6000 -SHRA FEW018CB
Issued Valid From Valid To
Dec-14 @ 17:00 UTC
(6 hours ago)
Dec-14 @ 18:00 UTC
(5 hours ago)
Dec-16 @ 00:00 UTC
(-1 days ago)
Dec-14 @ 18:00 to Dec-16 @ 00:00
TAF VRMM 141700Z 1418/1524 36006KT 9000 FEW018
Wind Visibility Clouds
360° at 6 knots 8,996 meters
  • Few at 1,800' AGL
Temporary Dec-14 @ 20:00 to Dec-15 @ 02:00
TEMPO 1420/1502 6000 -SHRA FEW018CB
Visibility Clouds Conditions
6,003 meters
  • Few at 1,800' AGL
  • Light Rain
TAF VRMM 141700Z 1418/1524 36006KT 9000 FEW018 TEMPO 1420/1502 6000 -SHRA FEW018CB
Issued Dec-14 @ 17:00 UTC
(6 hours ago)
Valid From Dec-14 @ 18:00 UTC
(5 hours ago)
Valid To Dec-16 @ 00:00 UTC
(-1 days ago)
Dec-14 @ 18:00 - Dec-16 @ 00:00
Wind Visibility
360° at 6 knots 8,996 meters
Clouds
  • Few at 1,800' AGL
Temporary Dec-14 @ 20:00 - Dec-15 @ 02:00
Clouds
  • Few at 1,800' AGL
Conditions
  • Light Rain